sensor_id;sensor_type;location;lat;lon;timestamp;P1;durP1;ratioP1;P2;durP2;ratioP2
10542;SDS011;5320;50.046;10.314;2022-10-13T00:00:50;31.90;;;24.20;;
10542;SDS011;5320;50.046;10.314;2022-10-13T00:03:16;28.50;;;22.27;;
10542;SDS011;5320;50.046;10.314;2022-10-13T00:05:43;27.53;;;21.87;;
10542;SDS011;5320;50.046;10.314;2022-10-13T00:08:10;28.57;;;22.57;;
10542;SDS011;5320;50.046;10.314;2022-10-13T00:10:37;27.63;;;20.80;;
10542;SDS011;5320;50.046;10.314;2022-10-13T00:13:04;28.27;;;20.97;;
10542;SDS011;5320;50.046;10.314;2022-10-13T00:15:30;29.53;;;22.17;;
10542;SDS011;5320;50.046;10.314;2022-10-13T00:17:56;29.10;;;20.30;;
10542;SDS011;5320;50.046;10.314;2022-10-13T00:20:22;27.07;;;20.77;;
10542;SDS011;5320;50.046;10.314;2022-10-13T00:22:48;25.27;;;20.70;;
10542;SDS011;5320;50.046;10.314;2022-10-13T00:25:13;26.57;;;19.97;;
10542;SDS011;5320;50.046;10.314;2022-10-13T00:27:39;26.43;;;20.47;;
10542;SDS011;5320;50.046;10.314;2022-10-13T00:30:05;26.77;;;20.93;;
10542;SDS011;5320;50.046;10.314;2022-10-13T00:32:31;24.80;;;18.90;;
10542;SDS011;5320;50.046;10.314;2022-10-13T00:34:57;29.43;;;21.13;;
10542;SDS011;5320;50.046;10.314;2022-10-13T00:37:23;26.47;;;21.40;;
10542;SDS011;5320;50.046;10.314;2022-10-13T00:39:49;28.57;;;22.00;;
10542;SDS011;5320;50.046;10.314;2022-10-13T00:42:14;28.33;;;21.80;;
10542;SDS011;5320;50.046;10.314;2022-10-13T00:45:41;27.33;;;22.47;;
10542;SDS011;5320;50.046;10.314;2022-10-13T00:47:45;31.73;;;22.60;;
10542;SDS011;5320;50.046;10.314;2022-10-13T00:50:15;30.17;;;21.50;;
10542;SDS011;5320;50.046;10.314;2022-10-13T00:52:45;28.90;;;21.80;;
10542;SDS011;5320;50.046;10.314;2022-10-13T00:55:12;27.63;;;21.27;;
10542;SDS011;5320;50.046;10.314;2022-10-13T00:57:43;27.17;;;21.80;;
10542;SDS011;5320;50.046;10.314;2022-10-13T01:00:12;29.23;;;22.77;;
10542;SDS011;5320;50.046;10.314;2022-10-13T01:02:38;27.07;;;21.43;;
10542;SDS011;5320;50.046;10.314;2022-10-13T01:05:05;26.83;;;21.60;;
10542;SDS011;5320;50.046;10.314;2022-10-13T01:07:32;26.77;;;21.70;;
10542;SDS011;5320;50.046;10.314;2022-10-13T01:09:58;29.00;;;23.80;;
10542;SDS011;5320;50.046;10.314;2022-10-13T01:15:02;26.27;;;21.53;;
10542;SDS011;5320;50.046;10.314;2022-10-13T01:17:54;27.37;;;21.73;;
10542;SDS011;5320;50.046;10.314;2022-10-13T01:31:41;24.97;;;19.87;;
10542;SDS011;5320;50.046;10.314;2022-10-13T01:34:19;437.47;;;30.70;;
10542;SDS011;5320;50.046;10.314;2022-10-13T01:37:02;104.90;;;20.17;;
10542;SDS011;5320;50.046;10.314;2022-10-13T01:39:44;21.00;;;18.57;;
10542;SDS011;5320;50.046;10.314;2022-10-13T01:43:15;23.57;;;19.73;;
10542;SDS011;5320;50.046;10.314;2022-10-13T01:46:15;24.63;;;19.60;;
10542;SDS011;5320;50.046;10.314;2022-10-13T01:48:25;25.57;;;20.53;;
10542;SDS011;5320;50.046;10.314;2022-10-13T01:50:53;33.63;;;23.17;;
10542;SDS011;5320;50.046;10.314;2022-10-13T01:53:21;33.00;;;22.83;;
10542;SDS011;5320;50.046;10.314;2022-10-13T01:55:52;35.37;;;23.43;;
10542;SDS011;5320;50.046;10.314;2022-10-13T01:58:23;27.53;;;21.37;;
10542;SDS011;5320;50.046;10.314;2022-10-13T02:00:55;26.03;;;21.20;;
10542;SDS011;5320;50.046;10.314;2022-10-13T02:11:34;24.80;;;19.53;;
10542;SDS011;5320;50.046;10.314;2022-10-13T02:16:41;27.07;;;19.80;;
10542;SDS011;5320;50.046;10.314;2022-10-13T02:19:10;25.80;;;19.50;;
10542;SDS011;5320;50.046;10.314;2022-10-13T02:21:39;26.90;;;20.20;;
10542;SDS011;5320;50.046;10.314;2022-10-13T02:24:05;27.33;;;20.33;;
10542;SDS011;5320;50.046;10.314;2022-10-13T02:26:32;24.27;;;19.27;;
10542;SDS011;5320;50.046;10.314;2022-10-13T02:28:59;22.03;;;18.27;;
10542;SDS011;5320;50.046;10.314;2022-10-13T02:31:31;23.83;;;19.40;;
10542;SDS011;5320;50.046;10.314;2022-10-13T02:33:57;23.87;;;19.53;;
10542;SDS011;5320;50.046;10.314;2022-10-13T02:36:22;21.93;;;17.93;;
10542;SDS011;5320;50.046;10.314;2022-10-13T02:38:48;21.57;;;18.07;;
10542;SDS011;5320;50.046;10.314;2022-10-13T02:41:14;22.13;;;18.07;;
10542;SDS011;5320;50.046;10.314;2022-10-13T02:43:40;24.23;;;18.40;;
10542;SDS011;5320;50.046;10.314;2022-10-13T02:46:06;22.87;;;18.20;;
10542;SDS011;5320;50.046;10.314;2022-10-13T02:48:32;21.57;;;19.27;;
10542;SDS011;5320;50.046;10.314;2022-10-13T02:50:57;25.43;;;19.20;;
10542;SDS011;5320;50.046;10.314;2022-10-13T02:53:23;22.70;;;18.90;;
10542;SDS011;5320;50.046;10.314;2022-10-13T02:55:49;20.27;;;17.97;;
10542;SDS011;5320;50.046;10.314;2022-10-13T02:58:14;20.03;;;17.90;;
10542;SDS011;5320;50.046;10.314;2022-10-13T03:00:40;19.87;;;17.80;;
10542;SDS011;5320;50.046;10.314;2022-10-13T03:03:06;19.80;;;16.30;;
10542;SDS011;5320;50.046;10.314;2022-10-13T03:05:31;19.07;;;17.07;;
10542;SDS011;5320;50.046;10.314;2022-10-13T03:07:57;20.00;;;17.90;;
10542;SDS011;5320;50.046;10.314;2022-10-13T03:10:23;20.07;;;18.07;;
10542;SDS011;5320;50.046;10.314;2022-10-13T03:12:49;20.30;;;18.27;;
10542;SDS011;5320;50.046;10.314;2022-10-13T03:15:15;18.43;;;16.57;;
10542;SDS011;5320;50.046;10.314;2022-10-13T03:17:40;17.87;;;16.17;;
10542;SDS011;5320;50.046;10.314;2022-10-13T03:20:06;17.47;;;15.73;;
10542;SDS011;5320;50.046;10.314;2022-10-13T03:22:33;16.47;;;14.87;;
10542;SDS011;5320;50.046;10.314;2022-10-13T03:24:58;18.10;;;16.20;;
10542;SDS011;5320;50.046;10.314;2022-10-13T03:27:24;16.93;;;15.23;;
10542;SDS011;5320;50.046;10.314;2022-10-13T03:29:50;16.10;;;14.50;;
10542;SDS011;5320;50.046;10.314;2022-10-13T03:32:16;16.73;;;15.03;;
10542;SDS011;5320;50.046;10.314;2022-10-13T03:34:41;17.27;;;15.30;;
10542;SDS011;5320;50.046;10.314;2022-10-13T03:37:07;17.87;;;16.07;;
10542;SDS011;5320;50.046;10.314;2022-10-13T03:39:33;17.10;;;15.43;;
10542;SDS011;5320;50.046;10.314;2022-10-13T03:41:58;16.87;;;15.27;;
10542;SDS011;5320;50.046;10.314;2022-10-13T03:44:25;17.77;;;16.07;;
10542;SDS011;5320;50.046;10.314;2022-10-13T03:46:51;18.40;;;16.50;;
10542;SDS011;5320;50.046;10.314;2022-10-13T03:49:17;17.73;;;15.90;;
10542;SDS011;5320;50.046;10.314;2022-10-13T03:51:43;17.10;;;15.40;;
10542;SDS011;5320;50.046;10.314;2022-10-13T03:54:12;16.40;;;14.67;;
10542;SDS011;5320;50.046;10.314;2022-10-13T03:56:38;18.13;;;16.30;;
10542;SDS011;5320;50.046;10.314;2022-10-13T03:59:05;18.40;;;16.50;;
10542;SDS011;5320;50.046;10.314;2022-10-13T04:01:31;17.73;;;15.83;;
10542;SDS011;5320;50.046;10.314;2022-10-13T04:03:58;17.63;;;15.73;;
10542;SDS011;5320;50.046;10.314;2022-10-13T04:06:26;18.63;;;16.67;;
10542;SDS011;5320;50.046;10.314;2022-10-13T04:08:53;20.30;;;17.10;;
10542;SDS011;5320;50.046;10.314;2022-10-13T04:11:20;19.70;;;17.53;;
10542;SDS011;5320;50.046;10.314;2022-10-13T04:13:46;20.10;;;16.93;;
10542;SDS011;5320;50.046;10.314;2022-10-13T04:16:13;20.73;;;16.27;;
10542;SDS011;5320;50.046;10.314;2022-10-13T04:18:41;20.07;;;17.33;;
10542;SDS011;5320;50.046;10.314;2022-10-13T04:21:08;20.80;;;17.80;;
10542;SDS011;5320;50.046;10.314;2022-10-13T04:23:35;32.10;;;20.40;;
10542;SDS011;5320;50.046;10.314;2022-10-13T04:26:02;20.03;;;17.73;;
10542;SDS011;5320;50.046;10.314;2022-10-13T04:28:29;24.00;;;19.60;;
10542;SDS011;5320;50.046;10.314;2022-10-13T04:30:58;46.10;;;20.80;;
10542;SDS011;5320;50.046;10.314;2022-10-13T04:33:24;155.03;;;25.50;;
10542;SDS011;5320;50.046;10.314;2022-10-13T04:35:50;36.20;;;22.67;;
10542;SDS011;5320;50.046;10.314;2022-10-13T04:38:16;30.67;;;22.80;;
10542;SDS011;5320;50.046;10.314;2022-10-13T04:40:41;31.40;;;22.50;;
10542;SDS011;5320;50.046;10.314;2022-10-13T04:43:07;368.23;;;30.27;;
10542;SDS011;5320;50.046;10.314;2022-10-13T04:45:32;104.93;;;25.67;;
10542;SDS011;5320;50.046;10.314;2022-10-13T04:47:59;32.37;;;24.97;;
10542;SDS011;5320;50.046;10.314;2022-10-13T04:50:25;48.77;;;25.47;;
10542;SDS011;5320;50.046;10.314;2022-10-13T04:52:51;48.07;;;24.83;;
10542;SDS011;5320;50.046;10.314;2022-10-13T04:55:16;34.77;;;24.63;;
10542;SDS011;5320;50.046;10.314;2022-10-13T04:57:42;76.53;;;26.43;;
10542;SDS011;5320;50.046;10.314;2022-10-13T05:00:08;41.33;;;24.83;;
10542;SDS011;5320;50.046;10.314;2022-10-13T05:02:36;650.83;;;37.43;;
10542;SDS011;5320;50.046;10.314;2022-10-13T05:05:02;35.00;;;24.73;;
10542;SDS011;5320;50.046;10.314;2022-10-13T05:07:29;47.63;;;26.10;;
10542;SDS011;5320;50.046;10.314;2022-10-13T05:09:55;41.70;;;24.43;;
10542;SDS011;5320;50.046;10.314;2022-10-13T05:12:20;44.37;;;25.20;;
10542;SDS011;5320;50.046;10.314;2022-10-13T05:14:46;34.17;;;25.00;;
10542;SDS011;5320;50.046;10.314;2022-10-13T05:17:12;71.67;;;26.90;;
10542;SDS011;5320;50.046;10.314;2022-10-13T05:19:38;35.57;;;24.63;;
10542;SDS011;5320;50.046;10.314;2022-10-13T05:22:03;34.47;;;25.07;;
10542;SDS011;5320;50.046;10.314;2022-10-13T05:24:29;36.73;;;25.57;;
10542;SDS011;5320;50.046;10.314;2022-10-13T05:27:10;32.90;;;25.10;;
10542;SDS011;5320;50.046;10.314;2022-10-13T05:29:37;902.13;;;50.60;;
10542;SDS011;5320;50.046;10.314;2022-10-13T05:32:03;835.90;;;47.67;;
10542;SDS011;5320;50.046;10.314;2022-10-13T05:34:29;249.67;;;31.90;;
10542;SDS011;5320;50.046;10.314;2022-10-13T05:36:56;88.67;;;28.30;;
10542;SDS011;5320;50.046;10.314;2022-10-13T05:39:23;39.53;;;28.23;;
10542;SDS011;5320;50.046;10.314;2022-10-13T05:41:48;40.30;;;27.13;;
10542;SDS011;5320;50.046;10.314;2022-10-13T05:44:14;94.00;;;28.87;;
10542;SDS011;5320;50.046;10.314;2022-10-13T05:46:42;39.43;;;27.60;;
10542;SDS011;5320;50.046;10.314;2022-10-13T05:49:08;37.00;;;27.03;;
10542;SDS011;5320;50.046;10.314;2022-10-13T05:51:51;36.53;;;25.40;;
10542;SDS011;5320;50.046;10.314;2022-10-13T05:59:29;30.13;;;22.90;;
10542;SDS011;5320;50.046;10.314;2022-10-13T06:01:59;32.63;;;23.23;;
10542;SDS011;5320;50.046;10.314;2022-10-13T06:04:29;31.30;;;24.00;;
10542;SDS011;5320;50.046;10.314;2022-10-13T06:06:59;36.97;;;25.20;;
10542;SDS011;5320;50.046;10.314;2022-10-13T06:09:26;32.20;;;24.33;;
10542;SDS011;5320;50.046;10.314;2022-10-13T06:11:59;32.53;;;25.80;;
10542;SDS011;5320;50.046;10.314;2022-10-13T06:14:25;34.00;;;25.07;;
10542;SDS011;5320;50.046;10.314;2022-10-13T06:16:51;31.07;;;23.43;;
10542;SDS011;5320;50.046;10.314;2022-10-13T06:19:16;33.23;;;24.47;;
10542;SDS011;5320;50.046;10.314;2022-10-13T06:21:42;30.70;;;23.37;;
10542;SDS011;5320;50.046;10.314;2022-10-13T06:24:08;28.50;;;21.63;;
10542;SDS011;5320;50.046;10.314;2022-10-13T06:26:34;25.67;;;20.73;;
10542;SDS011;5320;50.046;10.314;2022-10-13T06:28:59;29.07;;;21.30;;
10542;SDS011;5320;50.046;10.314;2022-10-13T06:31:25;27.97;;;21.47;;
10542;SDS011;5320;50.046;10.314;2022-10-13T06:33:51;28.43;;;21.73;;
10542;SDS011;5320;50.046;10.314;2022-10-13T06:36:17;30.13;;;22.23;;
10542;SDS011;5320;50.046;10.314;2022-10-13T06:38:43;31.33;;;23.00;;
10542;SDS011;5320;50.046;10.314;2022-10-13T06:41:08;38.57;;;27.80;;
10542;SDS011;5320;50.046;10.314;2022-10-13T06:43:35;36.37;;;25.70;;
10542;SDS011;5320;50.046;10.314;2022-10-13T06:46:01;30.93;;;23.53;;
10542;SDS011;5320;50.046;10.314;2022-10-13T06:48:27;31.07;;;22.13;;
10542;SDS011;5320;50.046;10.314;2022-10-13T06:50:53;31.57;;;22.30;;
10542;SDS011;5320;50.046;10.314;2022-10-13T06:53:19;28.53;;;22.20;;
10542;SDS011;5320;50.046;10.314;2022-10-13T06:55:45;32.00;;;24.20;;
10542;SDS011;5320;50.046;10.314;2022-10-13T06:58:11;29.53;;;22.30;;
10542;SDS011;5320;50.046;10.314;2022-10-13T07:00:39;30.33;;;22.47;;
10542;SDS011;5320;50.046;10.314;2022-10-13T07:03:05;30.73;;;23.77;;
10542;SDS011;5320;50.046;10.314;2022-10-13T07:05:31;32.67;;;23.97;;
10542;SDS011;5320;50.046;10.314;2022-10-13T07:07:57;32.57;;;23.63;;
10542;SDS011;5320;50.046;10.314;2022-10-13T07:10:22;32.03;;;23.50;;
10542;SDS011;5320;50.046;10.314;2022-10-13T07:12:48;32.50;;;22.70;;
10542;SDS011;5320;50.046;10.314;2022-10-13T07:15:14;32.73;;;23.73;;
10542;SDS011;5320;50.046;10.314;2022-10-13T07:17:40;31.70;;;23.33;;
10542;SDS011;5320;50.046;10.314;2022-10-13T07:20:05;36.23;;;25.43;;
10542;SDS011;5320;50.046;10.314;2022-10-13T07:22:32;31.77;;;22.13;;
10542;SDS011;5320;50.046;10.314;2022-10-13T07:24:57;31.07;;;23.47;;
10542;SDS011;5320;50.046;10.314;2022-10-13T07:27:23;38.20;;;25.10;;
10542;SDS011;5320;50.046;10.314;2022-10-13T07:29:49;37.93;;;24.70;;
10542;SDS011;5320;50.046;10.314;2022-10-13T07:32:15;39.60;;;25.43;;
10542;SDS011;5320;50.046;10.314;2022-10-13T07:34:40;51.93;;;27.07;;
10542;SDS011;5320;50.046;10.314;2022-10-13T07:37:07;48.90;;;27.60;;
10542;SDS011;5320;50.046;10.314;2022-10-13T07:39:33;51.87;;;27.37;;
10542;SDS011;5320;50.046;10.314;2022-10-13T07:41:59;48.43;;;27.63;;
10542;SDS011;5320;50.046;10.314;2022-10-13T07:44:24;54.30;;;29.47;;
10542;SDS011;5320;50.046;10.314;2022-10-13T07:46:50;55.13;;;29.33;;
10542;SDS011;5320;50.046;10.314;2022-10-13T07:49:16;55.40;;;29.20;;
10542;SDS011;5320;50.046;10.314;2022-10-13T07:51:42;53.13;;;28.53;;
10542;SDS011;5320;50.046;10.314;2022-10-13T07:54:08;55.47;;;29.53;;
10542;SDS011;5320;50.046;10.314;2022-10-13T07:56:34;50.57;;;28.30;;
10542;SDS011;5320;50.046;10.314;2022-10-13T07:59:00;53.70;;;27.03;;
10542;SDS011;5320;50.046;10.314;2022-10-13T08:01:27;56.30;;;26.60;;
10542;SDS011;5320;50.046;10.314;2022-10-13T08:03:56;61.97;;;26.13;;
10542;SDS011;5320;50.046;10.314;2022-10-13T08:06:21;53.47;;;26.03;;
10542;SDS011;5320;50.046;10.314;2022-10-13T08:08:47;51.97;;;26.87;;
10542;SDS011;5320;50.046;10.314;2022-10-13T08:11:14;50.80;;;26.47;;
10542;SDS011;5320;50.046;10.314;2022-10-13T08:13:44;51.10;;;27.40;;
10542;SDS011;5320;50.046;10.314;2022-10-13T08:16:11;50.97;;;28.57;;
10542;SDS011;5320;50.046;10.314;2022-10-13T08:18:37;55.37;;;27.23;;
10542;SDS011;5320;50.046;10.314;2022-10-13T08:21:03;52.57;;;26.53;;
10542;SDS011;5320;50.046;10.314;2022-10-13T08:23:29;60.80;;;27.23;;
10542;SDS011;5320;50.046;10.314;2022-10-13T08:25:54;46.00;;;25.67;;
10542;SDS011;5320;50.046;10.314;2022-10-13T08:28:22;58.80;;;26.50;;
10542;SDS011;5320;50.046;10.314;2022-10-13T08:30:53;50.63;;;25.40;;
10542;SDS011;5320;50.046;10.314;2022-10-13T08:33:22;50.33;;;26.23;;
10542;SDS011;5320;50.046;10.314;2022-10-13T08:35:48;53.37;;;26.87;;
10542;SDS011;5320;50.046;10.314;2022-10-13T08:38:14;54.17;;;26.23;;
10542;SDS011;5320;50.046;10.314;2022-10-13T08:40:40;49.93;;;26.43;;
10542;SDS011;5320;50.046;10.314;2022-10-13T08:43:15;64.10;;;26.07;;
10542;SDS011;5320;50.046;10.314;2022-10-13T08:45:44;45.80;;;26.47;;
10542;SDS011;5320;50.046;10.314;2022-10-13T08:48:19;51.30;;;27.13;;
10542;SDS011;5320;50.046;10.314;2022-10-13T08:50:49;51.13;;;25.77;;
10542;SDS011;5320;50.046;10.314;2022-10-13T08:55:57;49.70;;;24.83;;
10542;SDS011;5320;50.046;10.314;2022-10-13T08:58:35;59.97;;;23.93;;
10542;SDS011;5320;50.046;10.314;2022-10-13T09:01:15;50.13;;;25.27;;
10542;SDS011;5320;50.046;10.314;2022-10-13T09:03:44;49.93;;;23.37;;
10542;SDS011;5320;50.046;10.314;2022-10-13T09:08:48;44.63;;;23.23;;
10542;SDS011;5320;50.046;10.314;2022-10-13T09:11:26;46.63;;;24.00;;
10542;SDS011;5320;50.046;10.314;2022-10-13T09:13:59;46.77;;;22.83;;
10542;SDS011;5320;50.046;10.314;2022-10-13T09:16:33;42.03;;;22.97;;
10542;SDS011;5320;50.046;10.314;2022-10-13T09:19:16;37.17;;;21.47;;
10542;SDS011;5320;50.046;10.314;2022-10-13T09:24:45;44.60;;;22.73;;
10542;SDS011;5320;50.046;10.314;2022-10-13T09:27:14;41.80;;;23.30;;
10542;SDS011;5320;50.046;10.314;2022-10-13T09:29:41;35.30;;;21.97;;
10542;SDS011;5320;50.046;10.314;2022-10-13T09:32:18;40.50;;;21.10;;
10542;SDS011;5320;50.046;10.314;2022-10-13T09:34:48;30.77;;;20.57;;
10542;SDS011;5320;50.046;10.314;2022-10-13T09:37:21;37.13;;;21.03;;
10542;SDS011;5320;50.046;10.314;2022-10-13T09:39:59;37.73;;;20.57;;
10542;SDS011;5320;50.046;10.314;2022-10-13T09:42:37;35.33;;;20.87;;
10542;SDS011;5320;50.046;10.314;2022-10-13T09:45:13;37.80;;;23.00;;
10542;SDS011;5320;50.046;10.314;2022-10-13T09:47:47;38.07;;;21.70;;
10542;SDS011;5320;50.046;10.314;2022-10-13T09:50:34;37.73;;;24.03;;
10542;SDS011;5320;50.046;10.314;2022-10-13T09:58:43;37.77;;;22.47;;
10542;SDS011;5320;50.046;10.314;2022-10-13T10:01:32;35.93;;;22.53;;
10542;SDS011;5320;50.046;10.314;2022-10-13T10:04:04;37.33;;;23.33;;
10542;SDS011;5320;50.046;10.314;2022-10-13T10:06:33;36.70;;;21.73;;
10542;SDS011;5320;50.046;10.314;2022-10-13T10:14:13;42.87;;;24.57;;
10542;SDS011;5320;50.046;10.314;2022-10-13T10:16:52;41.37;;;26.37;;
10542;SDS011;5320;50.046;10.314;2022-10-13T10:24:51;44.20;;;26.30;;
10542;SDS011;5320;50.046;10.314;2022-10-13T10:27:20;46.77;;;27.20;;
10542;SDS011;5320;50.046;10.314;2022-10-13T10:38:33;47.23;;;27.50;;
10542;SDS011;5320;50.046;10.314;2022-10-13T10:41:25;51.63;;;28.60;;
10542;SDS011;5320;50.046;10.314;2022-10-13T10:46:50;45.60;;;27.60;;
10542;SDS011;5320;50.046;10.314;2022-10-13T10:49:22;50.17;;;28.63;;
10542;SDS011;5320;50.046;10.314;2022-10-13T10:51:52;46.17;;;27.90;;
10542;SDS011;5320;50.046;10.314;2022-10-13T10:54:21;45.97;;;27.43;;
10542;SDS011;5320;50.046;10.314;2022-10-13T10:57:00;47.50;;;27.67;;
10542;SDS011;5320;50.046;10.314;2022-10-13T11:07:13;45.43;;;27.70;;
10542;SDS011;5320;50.046;10.314;2022-10-13T11:19:44;43.23;;;27.57;;
10542;SDS011;5320;50.046;10.314;2022-10-13T11:22:13;45.57;;;28.97;;
10542;SDS011;5320;50.046;10.314;2022-10-13T11:37:26;46.13;;;29.50;;
10542;SDS011;5320;50.046;10.314;2022-10-13T11:48:24;40.80;;;26.73;;
10542;SDS011;5320;50.046;10.314;2022-10-13T11:51:21;39.43;;;26.10;;
10542;SDS011;5320;50.046;10.314;2022-10-13T11:56:52;39.17;;;24.67;;
10542;SDS011;5320;50.046;10.314;2022-10-13T12:02:04;35.53;;;24.07;;
10542;SDS011;5320;50.046;10.314;2022-10-13T12:04:37;34.77;;;24.17;;
10542;SDS011;5320;50.046;10.314;2022-10-13T12:07:10;32.70;;;23.37;;
10542;SDS011;5320;50.046;10.314;2022-10-13T12:09:54;29.53;;;22.23;;
10542;SDS011;5320;50.046;10.314;2022-10-13T12:12:21;36.93;;;24.50;;
10542;SDS011;5320;50.046;10.314;2022-10-13T12:14:49;37.50;;;25.37;;
10542;SDS011;5320;50.046;10.314;2022-10-13T12:19:51;39.47;;;26.20;;
10542;SDS011;5320;50.046;10.314;2022-10-13T12:22:18;37.10;;;25.10;;
10542;SDS011;5320;50.046;10.314;2022-10-13T12:24:55;36.23;;;25.53;;
10542;SDS011;5320;50.046;10.314;2022-10-13T12:27:32;37.30;;;25.70;;
10542;SDS011;5320;50.046;10.314;2022-10-13T12:30:24;37.23;;;24.30;;
10542;SDS011;5320;50.046;10.314;2022-10-13T12:32:52;31.67;;;23.90;;
10542;SDS011;5320;50.046;10.314;2022-10-13T12:35:22;37.80;;;26.90;;
10542;SDS011;5320;50.046;10.314;2022-10-13T12:37:49;42.60;;;26.43;;
10542;SDS011;5320;50.046;10.314;2022-10-13T12:40:17;38.60;;;25.70;;
10542;SDS011;5320;50.046;10.314;2022-10-13T12:42:43;36.03;;;25.30;;
10542;SDS011;5320;50.046;10.314;2022-10-13T12:45:14;39.57;;;26.20;;
10542;SDS011;5320;50.046;10.314;2022-10-13T12:50:19;39.63;;;25.70;;
10542;SDS011;5320;50.046;10.314;2022-10-13T12:55:32;35.73;;;23.97;;
10542;SDS011;5320;50.046;10.314;2022-10-13T12:57:59;34.60;;;24.30;;
10542;SDS011;5320;50.046;10.314;2022-10-13T13:00:26;34.33;;;23.80;;
10542;SDS011;5320;50.046;10.314;2022-10-13T13:05:34;37.10;;;24.23;;
10542;SDS011;5320;50.046;10.314;2022-10-13T13:08:03;36.73;;;24.97;;
10542;SDS011;5320;50.046;10.314;2022-10-13T13:10:57;36.03;;;24.77;;
10542;SDS011;5320;50.046;10.314;2022-10-13T13:13:24;34.57;;;23.63;;
10542;SDS011;5320;50.046;10.314;2022-10-13T13:15:51;34.03;;;23.80;;
10542;SDS011;5320;50.046;10.314;2022-10-13T13:18:36;35.53;;;23.97;;
10542;SDS011;5320;50.046;10.314;2022-10-13T13:21:06;35.13;;;22.37;;
10542;SDS011;5320;50.046;10.314;2022-10-13T13:23:36;32.77;;;22.90;;
10542;SDS011;5320;50.046;10.314;2022-10-13T13:26:05;32.77;;;23.57;;
10542;SDS011;5320;50.046;10.314;2022-10-13T13:28:31;30.57;;;22.30;;
10542;SDS011;5320;50.046;10.314;2022-10-13T13:30:57;30.57;;;22.07;;
10542;SDS011;5320;50.046;10.314;2022-10-13T13:33:23;33.00;;;22.47;;
10542;SDS011;5320;50.046;10.314;2022-10-13T13:35:50;30.10;;;21.43;;
10542;SDS011;5320;50.046;10.314;2022-10-13T13:38:16;31.63;;;22.67;;
10542;SDS011;5320;50.046;10.314;2022-10-13T13:40:42;35.47;;;22.70;;
10542;SDS011;5320;50.046;10.314;2022-10-13T13:43:08;31.07;;;21.03;;
10542;SDS011;5320;50.046;10.314;2022-10-13T13:45:34;31.13;;;20.80;;
10542;SDS011;5320;50.046;10.314;2022-10-13T13:48:00;29.07;;;21.53;;
10542;SDS011;5320;50.046;10.314;2022-10-13T13:50:35;31.20;;;21.20;;
10542;SDS011;5320;50.046;10.314;2022-10-13T13:53:01;27.43;;;20.80;;
10542;SDS011;5320;50.046;10.314;2022-10-13T13:55:27;31.83;;;21.13;;
10542;SDS011;5320;50.046;10.314;2022-10-13T13:57:54;30.90;;;21.73;;
10542;SDS011;5320;50.046;10.314;2022-10-13T14:00:21;32.00;;;22.63;;
10542;SDS011;5320;50.046;10.314;2022-10-13T14:02:46;34.57;;;24.30;;
10542;SDS011;5320;50.046;10.314;2022-10-13T14:05:12;35.63;;;24.97;;
10542;SDS011;5320;50.046;10.314;2022-10-13T14:07:39;37.73;;;25.90;;
10542;SDS011;5320;50.046;10.314;2022-10-13T14:10:06;36.07;;;24.83;;
10542;SDS011;5320;50.046;10.314;2022-10-13T14:12:33;38.20;;;27.40;;
10542;SDS011;5320;50.046;10.314;2022-10-13T14:14:59;41.17;;;27.63;;
10542;SDS011;5320;50.046;10.314;2022-10-13T14:17:25;34.73;;;25.10;;
10542;SDS011;5320;50.046;10.314;2022-10-13T14:19:52;39.27;;;25.97;;
10542;SDS011;5320;50.046;10.314;2022-10-13T14:22:18;95.63;;;57.33;;
10542;SDS011;5320;50.046;10.314;2022-10-13T14:24:43;48.93;;;33.57;;
10542;SDS011;5320;50.046;10.314;2022-10-13T14:27:09;52.13;;;36.17;;
10542;SDS011;5320;50.046;10.314;2022-10-13T14:29:35;41.77;;;28.87;;
10542;SDS011;5320;50.046;10.314;2022-10-13T14:32:01;42.07;;;27.97;;
10542;SDS011;5320;50.046;10.314;2022-10-13T14:34:28;37.90;;;27.57;;
10542;SDS011;5320;50.046;10.314;2022-10-13T14:36:53;38.60;;;27.60;;
10542;SDS011;5320;50.046;10.314;2022-10-13T14:39:19;40.67;;;29.40;;
10542;SDS011;5320;50.046;10.314;2022-10-13T14:41:45;39.50;;;28.10;;
10542;SDS011;5320;50.046;10.314;2022-10-13T14:44:12;44.47;;;29.60;;
10542;SDS011;5320;50.046;10.314;2022-10-13T14:46:39;40.83;;;29.27;;
10542;SDS011;5320;50.046;10.314;2022-10-13T14:49:05;41.70;;;28.27;;
10542;SDS011;5320;50.046;10.314;2022-10-13T14:51:31;39.00;;;26.60;;
10542;SDS011;5320;50.046;10.314;2022-10-13T14:53:57;35.23;;;25.80;;
10542;SDS011;5320;50.046;10.314;2022-10-13T14:56:23;38.57;;;25.60;;
10542;SDS011;5320;50.046;10.314;2022-10-13T14:58:51;39.37;;;26.17;;
10542;SDS011;5320;50.046;10.314;2022-10-13T15:01:18;37.83;;;26.13;;
10542;SDS011;5320;50.046;10.314;2022-10-13T15:03:44;34.60;;;25.40;;
10542;SDS011;5320;50.046;10.314;2022-10-13T15:06:15;35.07;;;25.20;;
10542;SDS011;5320;50.046;10.314;2022-10-13T15:08:42;35.83;;;26.13;;
10542;SDS011;5320;50.046;10.314;2022-10-13T15:11:08;35.03;;;25.33;;
10542;SDS011;5320;50.046;10.314;2022-10-13T15:13:35;39.50;;;26.43;;
10542;SDS011;5320;50.046;10.314;2022-10-13T15:16:01;37.60;;;24.73;;
10542;SDS011;5320;50.046;10.314;2022-10-13T15:18:31;33.07;;;25.03;;
10542;SDS011;5320;50.046;10.314;2022-10-13T15:20:59;38.33;;;25.33;;
10542;SDS011;5320;50.046;10.314;2022-10-13T15:23:25;37.13;;;25.83;;
10542;SDS011;5320;50.046;10.314;2022-10-13T15:25:51;33.93;;;24.57;;
10542;SDS011;5320;50.046;10.314;2022-10-13T15:28:22;35.37;;;24.57;;
10542;SDS011;5320;50.046;10.314;2022-10-13T15:30:50;35.40;;;25.80;;
10542;SDS011;5320;50.046;10.314;2022-10-13T15:33:16;31.23;;;24.23;;
10542;SDS011;5320;50.046;10.314;2022-10-13T15:35:42;35.97;;;25.63;;
10542;SDS011;5320;50.046;10.314;2022-10-13T15:38:08;34.90;;;25.27;;
10542;SDS011;5320;50.046;10.314;2022-10-13T15:40:37;35.60;;;24.43;;
10542;SDS011;5320;50.046;10.314;2022-10-13T15:43:03;34.53;;;23.93;;
10542;SDS011;5320;50.046;10.314;2022-10-13T15:45:30;32.27;;;22.80;;
10542;SDS011;5320;50.046;10.314;2022-10-13T15:47:56;32.03;;;24.17;;
10542;SDS011;5320;50.046;10.314;2022-10-13T15:50:25;31.50;;;24.30;;
10542;SDS011;5320;50.046;10.314;2022-10-13T15:52:52;34.13;;;24.20;;
10542;SDS011;5320;50.046;10.314;2022-10-13T15:55:17;36.00;;;24.17;;
10542;SDS011;5320;50.046;10.314;2022-10-13T15:57:43;32.37;;;23.50;;
10542;SDS011;5320;50.046;10.314;2022-10-13T16:00:10;30.80;;;23.13;;
10542;SDS011;5320;50.046;10.314;2022-10-13T16:02:38;33.13;;;22.53;;
10542;SDS011;5320;50.046;10.314;2022-10-13T16:05:05;32.17;;;22.50;;
10542;SDS011;5320;50.046;10.314;2022-10-13T16:07:33;33.17;;;22.33;;
10542;SDS011;5320;50.046;10.314;2022-10-13T16:09:59;36.20;;;23.97;;
10542;SDS011;5320;50.046;10.314;2022-10-13T16:12:28;31.90;;;23.47;;
10542;SDS011;5320;50.046;10.314;2022-10-13T16:14:55;33.43;;;24.13;;
10542;SDS011;5320;50.046;10.314;2022-10-13T16:17:21;31.20;;;23.07;;
10542;SDS011;5320;50.046;10.314;2022-10-13T16:19:47;34.63;;;23.53;;
10542;SDS011;5320;50.046;10.314;2022-10-13T16:22:12;29.40;;;23.60;;
10542;SDS011;5320;50.046;10.314;2022-10-13T16:24:39;34.80;;;23.30;;
10542;SDS011;5320;50.046;10.314;2022-10-13T16:27:05;34.47;;;24.87;;
10542;SDS011;5320;50.046;10.314;2022-10-13T16:29:31;33.13;;;24.77;;